Carterville, Mississippi
Current Conditions -  °F | °C
As of 6:53 AM on Saturday 25 Oct 2014 (Local Time) from KHBG Reporting Station
Clear Clear  
Wind Chill: 45°   Ceiling: Unl
Heat Index: 45°   Visibility: 10mi
Dew Point: 44°   Wind: 0mph
Humidity: 97%   Direction: NA
Pressure: 30.14"   Gusts: NA
Location:  31.1996°N, 89.2694°W
Report Text: KHBG 251153Z AUTO 00000KT 10SM CLR 07/07 A3014 RMK AO2 SLP205 T00720067 10094 20072 53012
Loading
Personal Weather Stations






























Interactive Weather Map
Tropical Storm Tracking
New forecast layout! Learn more

10-Day Weather Forecast

Advertisements
Track Severe Weather on mobile